createdAt,value
2022-12-04T00:01:23.075Z,20.17
2022-12-04T00:06:20.587Z,22.20
2022-12-04T00:11:20.169Z,21.98
2022-12-04T00:16:19.610Z,20.60
2022-12-04T00:21:17.447Z,20.73
2022-12-04T00:26:16.280Z,19.80
2022-12-04T00:31:16.009Z,20.05
2022-12-04T00:36:15.286Z,21.02
2022-12-04T00:41:13.950Z,17.80
2022-12-04T00:46:10.553Z,20.73
2022-12-04T00:51:10.357Z,19.27
2022-12-04T00:56:09.394Z,18.50
2022-12-04T01:01:10.485Z,19.10
2022-12-04T01:06:07.498Z,20.33
2022-12-04T01:11:06.783Z,19.52
2022-12-04T01:16:03.642Z,19.88
2022-12-04T01:21:00.181Z,19.25
2022-12-04T01:25:58.649Z,13.68
2022-12-04T01:31:10.082Z,19.50
2022-12-04T01:36:09.612Z,20.60
2022-12-04T01:41:07.627Z,18.63
2022-12-04T01:46:04.310Z,19.75
2022-12-04T01:51:05.607Z,19.98
2022-12-04T01:56:03.206Z,19.90
2022-12-04T02:01:07.921Z,20.38
2022-12-04T02:06:06.480Z,20.70
2022-12-04T02:11:03.014Z,20.73
2022-12-04T02:16:37.204Z,19.42
2022-12-04T02:21:38.604Z,19.98
2022-12-04T02:26:48.708Z,20.40
2022-12-04T02:32:06.451Z,19.73
2022-12-04T02:37:11.214Z,18.27
2022-12-04T02:42:14.276Z,17.70
2022-12-04T02:47:14.947Z,18.92
2022-12-04T02:52:13.699Z,19.00
2022-12-04T02:57:16.058Z,20.00
2022-12-04T03:02:17.502Z,20.75
2022-12-04T03:07:18.197Z,19.52
2022-12-04T03:12:14.801Z,19.02
2022-12-04T03:17:16.789Z,19.35
2022-12-04T03:22:15.699Z,17.95
2022-12-04T03:27:40.555Z,19.42
2022-12-04T03:32:43.405Z,19.35
2022-12-04T03:37:42.601Z,19.92
2022-12-04T03:43:00.921Z,19.20
2022-12-04T03:48:03.787Z,19.23
2022-12-04T03:53:07.643Z,19.60
2022-12-04T03:58:08.551Z,19.45
2022-12-04T04:03:13.613Z,19.42
2022-12-04T04:08:33.697Z,18.73
2022-12-04T04:14:03.679Z,18.45
2022-12-04T04:19:19.308Z,20.02
2022-12-04T04:24:28.063Z,19.40
2022-12-04T04:29:25.731Z,18.27
2022-12-04T04:34:38.124Z,19.55
2022-12-04T04:39:38.891Z,20.17
2022-12-04T04:44:38.377Z,18.65
2022-12-04T04:49:35.984Z,18.77
2022-12-04T04:54:34.010Z,19.63
2022-12-04T04:59:30.608Z,20.75
2022-12-04T05:04:27.100Z,18.92
2022-12-04T05:09:23.746Z,19.60
2022-12-04T05:14:20.311Z,20.98
2022-12-04T05:19:35.481Z,18.45
2022-12-04T05:24:31.982Z,20.92
2022-12-04T05:29:31.636Z,19.67
2022-12-04T05:34:32.263Z,19.85
2022-12-04T05:39:28.809Z,20.65
2022-12-04T05:44:25.327Z,19.83
2022-12-04T05:49:21.955Z,18.80
2022-12-04T05:54:19.022Z,20.83
2022-12-04T06:04:12.222Z,18.75
2022-12-04T06:09:09.131Z,19.13
2022-12-04T06:14:08.333Z,19.48
2022-12-04T06:19:11.578Z,20.17
2022-12-04T06:24:10.363Z,19.33
2022-12-04T06:29:06.890Z,20.00
2022-12-04T06:34:03.474Z,21.08
2022-12-04T06:39:00.009Z,19.67
2022-12-04T06:43:56.633Z,21.08
2022-12-04T06:48:55.164Z,20.77
2022-12-04T06:53:52.296Z,20.08
2022-12-04T07:03:51.062Z,19.13
2022-12-04T07:08:50.330Z,22.50
2022-12-04T07:13:47.410Z,21.80
2022-12-04T07:23:40.706Z,21.60
2022-12-04T07:28:37.903Z,21.40
2022-12-04T07:38:31.766Z,21.95
2022-12-04T07:43:29.439Z,20.95
2022-12-04T07:48:31.733Z,21.45
2022-12-04T07:54:25.702Z,22.05
2022-12-04T07:59:24.434Z,23.38
2022-12-04T08:04:20.986Z,20.95
2022-12-04T08:09:17.586Z,21.98
2022-12-04T08:14:14.822Z,17.80
2022-12-04T08:19:11.433Z,21.10
2022-12-04T08:24:09.159Z,21.42
2022-12-04T08:29:06.585Z,23.92
2022-12-04T08:34:06.291Z,22.23
2022-12-04T08:39:03.669Z,21.67
2022-12-04T08:44:01.024Z,21.70
2022-12-04T08:48:58.098Z,21.38
2022-12-04T08:58:52.476Z,20.55
2022-12-04T09:03:49.043Z,20.98
2022-12-04T09:08:45.695Z,20.48
2022-12-04T09:13:42.759Z,21.90
2022-12-04T09:18:40.042Z,20.25
2022-12-04T09:23:38.327Z,20.75
2022-12-04T09:28:34.987Z,21.20
2022-12-04T09:33:33.212Z,21.25
2022-12-04T09:38:30.936Z,21.30
2022-12-04T09:43:27.505Z,20.40
2022-12-04T09:48:31.674Z,20.25
2022-12-04T09:53:42.667Z,20.48
2022-12-04T09:58:50.914Z,20.38
2022-12-04T10:03:53.776Z,19.52
2022-12-04T10:09:21.486Z,18.27
2022-12-04T10:14:34.183Z,19.85
2022-12-04T10:19:37.617Z,19.80
2022-12-04T10:24:51.003Z,18.67
2022-12-04T10:29:59.726Z,18.15
2022-12-04T10:35:04.369Z,18.73
2022-12-04T10:40:24.409Z,19.05
2022-12-04T10:45:24.579Z,19.35
2022-12-04T10:50:34.698Z,18.58
2022-12-04T10:55:38.506Z,18.35
2022-12-04T11:00:36.297Z,19.17
2022-12-04T11:06:05.115Z,19.77
2022-12-04T11:11:11.574Z,19.40
2022-12-04T11:16:09.046Z,19.45
2022-12-04T11:21:13.708Z,16.40
2022-12-04T11:26:16.235Z,18.00
2022-12-04T11:31:20.124Z,20.00
2022-12-04T11:36:23.231Z,18.90
2022-12-04T11:41:28.540Z,18.27
2022-12-04T11:46:29.006Z,18.80
2022-12-04T11:51:41.922Z,19.77
2022-12-04T11:56:47.420Z,17.70
2022-12-04T12:02:12.574Z,18.52
2022-12-04T12:07:21.861Z,17.65
2022-12-04T12:12:29.735Z,18.67
2022-12-04T12:17:41.201Z,19.65
2022-12-04T12:23:17.655Z,18.45
2022-12-04T12:28:51.735Z,18.52
2022-12-04T12:34:29.232Z,17.85
2022-12-04T12:39:52.921Z,15.68
2022-12-04T12:45:01.766Z,17.95
2022-12-04T12:50:27.930Z,16.95
2022-12-04T12:55:49.059Z,14.63
2022-12-04T13:01:00.268Z,16.30
2022-12-04T13:06:15.092Z,18.10
2022-12-04T13:11:13.834Z,17.35
2022-12-04T13:16:19.363Z,17.63
2022-12-04T13:21:42.733Z,17.23
2022-12-04T13:26:59.150Z,16.58
2022-12-04T13:32:44.226Z,16.83
2022-12-04T13:37:54.525Z,15.93
2022-12-04T13:42:54.445Z,15.98
2022-12-04T13:48:08.738Z,16.80
2022-12-04T13:53:06.734Z,15.25
2022-12-04T13:58:16.875Z,14.93
2022-12-04T14:03:33.364Z,14.05
2022-12-04T14:08:37.239Z,15.93
2022-12-04T14:19:33.103Z,16.33
2022-12-04T14:24:37.864Z,15.93
2022-12-04T14:29:55.304Z,17.13
2022-12-04T14:35:04.173Z,16.88
2022-12-04T14:40:13.792Z,18.15
2022-12-04T14:45:49.107Z,17.23
2022-12-04T14:51:21.841Z,17.95
2022-12-04T14:56:39.149Z,16.77
2022-12-04T15:01:46.688Z,18.13
2022-12-04T15:07:02.834Z,17.95
2022-12-04T15:12:42.641Z,19.67
2022-12-04T15:17:45.574Z,20.15
2022-12-04T15:22:47.982Z,19.27
2022-12-04T15:27:50.401Z,19.00
2022-12-04T15:32:57.022Z,18.88
2022-12-04T15:37:59.034Z,19.90
2022-12-04T15:43:13.022Z,20.15
2022-12-04T15:48:10.233Z,18.10
2022-12-04T15:53:15.618Z,18.75
2022-12-04T15:58:37.254Z,19.40
2022-12-04T16:03:43.995Z,18.38
2022-12-04T16:08:56.603Z,17.90
2022-12-04T16:14:19.894Z,18.67
2022-12-04T16:19:39.160Z,15.60
2022-12-04T16:24:35.909Z,17.88
2022-12-04T16:29:35.893Z,17.73
2022-12-04T16:34:40.185Z,16.85
2022-12-04T16:39:41.830Z,17.95
2022-12-04T16:44:40.845Z,16.60
2022-12-04T16:49:37.710Z,16.75
2022-12-04T16:54:37.484Z,14.80
2022-12-04T16:59:33.997Z,17.17
2022-12-04T17:04:31.180Z,16.30
2022-12-04T17:09:27.880Z,16.65
2022-12-04T17:14:24.492Z,16.67
2022-12-04T17:19:22.138Z,16.15
2022-12-04T17:24:18.781Z,16.90
2022-12-04T17:29:15.317Z,17.40
2022-12-04T17:34:11.920Z,16.35
2022-12-04T17:39:11.747Z,15.88
2022-12-04T17:44:08.264Z,15.70
2022-12-04T17:49:07.342Z,12.60
2022-12-04T17:54:10.760Z,15.48
2022-12-04T17:59:12.228Z,16.10
2022-12-04T18:04:25.393Z,15.15
2022-12-04T18:09:25.661Z,14.55
2022-12-04T18:14:24.045Z,13.93
2022-12-04T18:19:26.940Z,13.02
2022-12-04T18:24:25.331Z,13.20
2022-12-04T18:29:24.700Z,13.93
2022-12-04T18:34:21.918Z,13.60
2022-12-04T18:39:21.142Z,13.10
2022-12-04T18:44:24.336Z,13.82
2022-12-04T18:49:21.467Z,13.20
2022-12-04T18:54:23.144Z,14.25
2022-12-04T18:59:24.972Z,14.25
2022-12-04T19:04:23.318Z,15.43
2022-12-04T19:10:10.475Z,14.80
2022-12-04T19:14:43.857Z,14.65
2022-12-04T19:19:41.329Z,14.98
2022-12-04T19:24:38.554Z,14.85
2022-12-04T19:29:44.138Z,16.25
2022-12-04T19:34:43.765Z,16.30
2022-12-04T19:39:43.059Z,14.93
2022-12-04T19:44:48.245Z,15.63
2022-12-04T19:49:46.685Z,16.67
2022-12-04T19:54:43.492Z,15.32
2022-12-04T19:59:46.762Z,15.13
2022-12-04T20:04:46.888Z,15.27
2022-12-04T20:09:51.959Z,15.38
2022-12-04T20:14:52.412Z,15.60
2022-12-04T20:19:49.565Z,15.85
2022-12-04T20:24:46.465Z,15.02
2022-12-04T20:29:46.170Z,15.57
2022-12-04T20:34:43.942Z,13.45
2022-12-04T20:39:42.583Z,14.40
2022-12-04T20:44:41.765Z,14.77
2022-12-04T20:49:41.605Z,12.80
2022-12-04T20:54:41.562Z,15.02
2022-12-04T20:59:40.591Z,14.32
2022-12-04T21:04:38.313Z,14.75
2022-12-04T21:09:37.570Z,14.23
2022-12-04T21:14:52.960Z,14.57
2022-12-04T21:19:53.591Z,14.48
2022-12-04T21:24:52.713Z,15.95
